LiveATC.Net - Listen to live air traffic control over the Internet!


ICAO: YBAF  IATA: BNE   Airport: Archerfield Airport
City: Brisbane   State/Province: Queensland
Country: Australia   Continent: Oceania
YBBN METAR Weather: YBBN 220230Z 08010KT 9999 FEW030 30/20 Q1016 NOSIG
YBAF Flight Activity (FlightAware)
YBAF Webcam:  (Airport Webcams) 

YBAF Gnd/Twr #2
Feed Status: UP   Listeners: 2
Listen in your browser - HTML5 player (in browser, HTML5)
Click here to listen with your own player (launches your MP3 player)
YBAF Gnd/Twr #2 Audio Archives
FacilityFrequency
Brisbane Ground119.900
Brisbane Tower (North)123.600
Brisbane Tower/CTAF (South)118.100

NOTICE

Unauthorized use prohibited. See LiveATC.net Terms of Service


Find LiveATC Audio Streams


Airport/ARTCC Code

Frequency Search
(e.g., 124.400, 128.75)
Site-wide search
 


Browse LiveATC Feeds
Top 50 LiveATC Feeds
LiveATC Feed Map
Bad Weather Areas

LiveATC FAQ
Offer LiveATC feed
Contact LiveATC.net
Press Inquiries

LiveATC on iPhone
LiveATC on Android

Windows Phone
Windows 8/10

LiveATC Mobile
(Mobile browser)

ATC Audio Archives
Interesting Recordings

LiveATC Forums


Home Page
About LiveATC.net
Make a Donation
Terms of Use
Privacy Policy

Canadian Air Freqs

AIRMETs/SIGMETs

FAA Airport Status
Nat'l Airspace Status
Arrival Demand Charts


Server Software By:
Icecast.org
Liquidsoap